VORY

Details ICAO VORY (RJA)
Name RAJAHMUNDRY
Region India
Timezone Asia/Kolkata (UTC+5.5)
Plans Departing 2
Arriving 3
Stats Elevation 151 ft / 46 m (AMSL)
Location 17.110361° 81.818209°
Runways 1
Magnetic Variation 0.672° W
Sunrise 2017-12-17 00:56:50 UTC / 2017-12-17 06:26:50 Local
Sunset 2017-12-17 12:03:23 UTC / 2017-12-17 17:33:23 Local
Advertisement - Login to hide

Runways

ID Width Length Bearing (true) Bearing (mag) Surface Threshold Offset Overrun Length
05 150 ft / 46 m 5,714 ft / 1,742 m 53.53° 54.20° Asphalt 0 ft / 0 m 0 ft / 0 m
23 150 ft / 46 m 5,714 ft / 1,742 m 233.54° 234.21° Asphalt 0 ft / 0 m 0 ft / 0 m

Map

Weather


0- 5 10 15 20 25 30 35+ Temperature / ° C

Clouds and Precipitation
Forecast for 2017-12-17 06:00 UTC. Updated an hour ago

Ground ~20,000 ft ~40,000 ft Winds

METAR

VORY 170630Z 04005KT 6000 NSC 27/18 Q1018 NOSIG

TAF

Not found

Frequencies

Tower 122.30 MHz TWR
Warning: Do not use this data for real-world aviation or navigation. No guarantee of current accuracy is given.